createdAt,value
2019-03-17T00:00:20.803Z,69.80
2019-03-17T00:02:51.325Z,70.00
2019-03-17T00:05:22.057Z,70.00
2019-03-17T00:07:53.114Z,69.90
2019-03-17T00:10:26.364Z,70.00
2019-03-17T00:12:57.150Z,70.20
2019-03-17T00:15:27.703Z,70.30
2019-03-17T00:17:58.413Z,70.20
2019-03-17T00:20:29.291Z,70.40
2019-03-17T00:22:59.982Z,70.60
2019-03-17T00:25:30.761Z,70.00
2019-03-17T00:28:01.264Z,69.80
2019-03-17T00:30:32.080Z,69.30
2019-03-17T00:33:02.703Z,68.90
2019-03-17T00:35:33.354Z,68.20
2019-03-17T00:38:04.168Z,68.40
2019-03-17T00:40:34.794Z,68.20
2019-03-17T00:43:05.375Z,68.00
2019-03-17T00:45:36.287Z,67.80
2019-03-17T00:48:06.880Z,67.60
2019-03-17T00:50:37.479Z,67.20
2019-03-17T00:53:08.360Z,66.90
2019-03-17T00:55:39.125Z,66.40
2019-03-17T00:58:09.768Z,66.10
2019-03-17T01:00:42.723Z,66.00
2019-03-17T01:03:13.556Z,66.00
2019-03-17T01:05:44.071Z,65.50
2019-03-17T01:08:15.072Z,65.10
2019-03-17T01:10:46.276Z,64.80
2019-03-17T01:13:16.936Z,64.90
2019-03-17T01:15:47.470Z,64.90
2019-03-17T01:18:18.074Z,64.70
2019-03-17T01:20:48.807Z,64.30
2019-03-17T01:23:19.447Z,64.00
2019-03-17T01:25:50.430Z,63.80
2019-03-17T01:28:21.228Z,63.70
2019-03-17T01:30:51.978Z,63.70
2019-03-17T01:33:22.980Z,63.30
2019-03-17T01:35:53.561Z,63.10
2019-03-17T01:38:24.227Z,62.90
2019-03-17T01:40:55.202Z,63.70
2019-03-17T01:43:25.886Z,62.80
2019-03-17T01:45:56.445Z,62.60
2019-03-17T01:48:27.448Z,62.30
2019-03-17T01:50:58.074Z,62.00
2019-03-17T01:53:28.844Z,62.00
2019-03-17T01:55:59.259Z,61.80
2019-03-17T01:58:30.318Z,61.70
2019-03-17T02:01:01.088Z,60.80
2019-03-17T02:03:31.690Z,61.50
2019-03-17T02:06:02.336Z,61.20
2019-03-17T02:08:33.098Z,61.00
2019-03-17T02:11:03.854Z,60.80
2019-03-17T02:13:34.316Z,60.60
2019-03-17T02:16:05.004Z,60.40
2019-03-17T02:18:35.502Z,60.20
2019-03-17T02:21:06.257Z,60.00
2019-03-17T02:23:36.754Z,59.90
2019-03-17T02:26:07.361Z,59.70
2019-03-17T02:28:38.058Z,59.30
2019-03-17T02:31:09.334Z,59.20
2019-03-17T02:33:40.038Z,59.10
2019-03-17T02:36:11.062Z,58.90
2019-03-17T02:38:41.705Z,58.80
2019-03-17T02:41:12.439Z,58.70
2019-03-17T02:43:43.188Z,58.50
2019-03-17T02:46:13.685Z,58.30
2019-03-17T02:48:44.408Z,58.20
2019-03-17T02:51:15.297Z,57.70
2019-03-17T02:53:46.056Z,57.70
2019-03-17T02:56:16.656Z,57.60
2019-03-17T02:58:47.261Z,57.60
2019-03-17T03:01:17.819Z,57.60
2019-03-17T03:03:48.923Z,57.30
2019-03-17T03:06:19.582Z,57.90
2019-03-17T03:08:50.128Z,56.90
2019-03-17T03:11:21.052Z,56.70
2019-03-17T03:13:51.713Z,56.70
2019-03-17T03:16:22.255Z,56.10
2019-03-17T03:18:52.866Z,56.10
2019-03-17T03:21:23.494Z,55.70
2019-03-17T03:23:54.364Z,55.70
2019-03-17T03:26:25.307Z,55.10
2019-03-17T03:28:56.088Z,55.30
2019-03-17T03:31:26.722Z,55.20
2019-03-17T03:33:57.491Z,54.10
2019-03-17T03:36:28.114Z,54.60
2019-03-17T03:38:58.968Z,54.40
2019-03-17T03:41:29.562Z,53.90
2019-03-17T03:44:01.245Z,54.20
2019-03-17T03:46:31.868Z,53.20
2019-03-17T03:49:02.654Z,53.10
2019-03-17T03:51:33.595Z,54.00
2019-03-17T03:54:04.289Z,51.80
2019-03-17T03:56:35.033Z,52.60
2019-03-17T03:59:06.007Z,53.00
2019-03-17T04:01:36.815Z,53.10
2019-03-17T04:04:07.528Z,53.50
2019-03-17T04:06:38.457Z,53.40
2019-03-17T04:09:09.566Z,53.60
2019-03-17T04:11:40.224Z,53.20
2019-03-17T04:14:13.802Z,52.20
2019-03-17T04:16:44.476Z,52.40
2019-03-17T04:19:15.651Z,52.60
2019-03-17T04:21:46.293Z,52.10
2019-03-17T04:24:17.083Z,52.60
2019-03-17T04:26:47.826Z,52.40
2019-03-17T04:29:18.413Z,52.40
2019-03-17T04:31:49.190Z,52.30
2019-03-17T04:34:19.762Z,52.30
2019-03-17T04:36:50.492Z,52.00
2019-03-17T04:39:21.107Z,51.50
2019-03-17T04:41:51.853Z,51.40
2019-03-17T04:44:22.927Z,51.30
2019-03-17T04:46:53.593Z,51.90
2019-03-17T04:49:24.416Z,51.10
2019-03-17T04:51:54.928Z,50.90
2019-03-17T04:54:26.201Z,50.90
2019-03-17T04:56:57.018Z,50.90
2019-03-17T04:59:27.662Z,51.40
2019-03-17T05:01:58.311Z,50.60
2019-03-17T05:04:29.032Z,51.00
2019-03-17T05:06:59.648Z,50.10
2019-03-17T05:09:31.364Z,50.60
2019-03-17T05:12:02.025Z,50.30
2019-03-17T05:14:32.740Z,48.80
2019-03-17T05:17:03.385Z,49.10
2019-03-17T05:19:34.358Z,50.20
2019-03-17T05:22:04.978Z,49.80
2019-03-17T05:24:35.544Z,50.00
2019-03-17T05:27:06.378Z,50.10
2019-03-17T05:29:37.046Z,49.80
2019-03-17T05:32:08.051Z,49.80
2019-03-17T05:34:38.772Z,49.30
2019-03-17T05:37:09.697Z,49.90
2019-03-17T05:39:40.242Z,49.80
2019-03-17T05:42:10.906Z,49.10
2019-03-17T05:44:41.509Z,48.90
2019-03-17T05:47:12.267Z,49.00
2019-03-17T05:49:42.905Z,49.00
2019-03-17T05:52:13.721Z,49.10
2019-03-17T05:54:45.392Z,48.60
2019-03-17T05:57:15.985Z,48.00
2019-03-17T05:59:46.678Z,48.30
2019-03-17T06:02:17.279Z,48.10
2019-03-17T06:04:47.908Z,48.70
2019-03-17T06:07:21.597Z,48.90
2019-03-17T06:09:52.161Z,48.50
2019-03-17T06:12:22.585Z,48.20
2019-03-17T06:14:53.106Z,46.80
2019-03-17T06:17:24.021Z,47.00
2019-03-17T06:19:54.761Z,47.30
2019-03-17T06:22:25.786Z,47.30
2019-03-17T06:24:56.279Z,47.40
2019-03-17T06:27:26.852Z,47.50
2019-03-17T06:29:57.514Z,47.90
2019-03-17T06:32:28.468Z,47.70
2019-03-17T06:34:59.102Z,47.40
2019-03-17T06:37:31.360Z,47.40
2019-03-17T06:40:01.547Z,47.50
2019-03-17T06:42:31.956Z,46.50
2019-03-17T06:45:02.649Z,45.80
2019-03-17T06:47:33.329Z,46.70
2019-03-17T06:50:04.159Z,47.00
2019-03-17T06:52:34.921Z,47.60
2019-03-17T06:55:06.779Z,47.10
2019-03-17T06:57:37.635Z,47.50
2019-03-17T07:00:10.751Z,46.90
2019-03-17T07:02:41.389Z,46.30
2019-03-17T07:05:12.683Z,46.50
2019-03-17T07:07:44.749Z,46.10
2019-03-17T07:10:15.669Z,46.10
2019-03-17T07:12:47.163Z,45.90
2019-03-17T07:15:17.647Z,45.90
2019-03-17T07:17:48.283Z,46.40
2019-03-17T07:20:19.041Z,46.60
2019-03-17T07:22:49.733Z,46.50
2019-03-17T07:25:20.436Z,46.30
2019-03-17T07:27:51.170Z,46.00
2019-03-17T07:30:22.166Z,46.00
2019-03-17T07:32:52.924Z,46.30
2019-03-17T07:35:23.629Z,46.20
2019-03-17T07:37:57.054Z,46.90
2019-03-17T07:40:26.385Z,45.60
2019-03-17T07:42:56.923Z,45.30
2019-03-17T07:45:27.609Z,45.80
2019-03-17T07:47:58.137Z,45.70
2019-03-17T07:50:28.923Z,45.50
2019-03-17T07:52:59.699Z,45.40
2019-03-17T07:55:30.462Z,45.40
2019-03-17T07:58:01.125Z,45.40
2019-03-17T08:00:32.489Z,45.40
2019-03-17T08:03:03.446Z,44.50
2019-03-17T08:05:34.067Z,45.00
2019-03-17T08:08:09.275Z,45.20
2019-03-17T08:10:36.666Z,45.50
2019-03-17T08:13:07.319Z,44.80
2019-03-17T08:15:37.943Z,43.60
2019-03-17T08:18:08.715Z,43.30
2019-03-17T08:20:39.356Z,44.10
2019-03-17T08:23:10.124Z,44.20
2019-03-17T08:25:40.726Z,44.60
2019-03-17T08:28:11.455Z,45.20
2019-03-17T08:30:52.424Z,44.10
2019-03-17T08:33:14.732Z,44.60
2019-03-17T08:35:45.410Z,44.70
2019-03-17T08:38:21.752Z,44.50
2019-03-17T08:40:48.111Z,43.90
2019-03-17T08:43:18.701Z,44.30
2019-03-17T08:45:49.429Z,44.80
2019-03-17T08:48:19.974Z,45.30
2019-03-17T08:50:51.589Z,43.40
2019-03-17T08:53:22.924Z,43.00
2019-03-17T08:55:53.662Z,43.30
2019-03-17T08:58:24.341Z,44.00
2019-03-17T09:00:55.027Z,44.20
2019-03-17T09:03:25.671Z,44.20
2019-03-17T09:05:56.439Z,44.40
2019-03-17T09:08:35.049Z,44.60
2019-03-17T09:10:59.381Z,44.50
2019-03-17T09:13:30.099Z,44.20
2019-03-17T09:16:00.798Z,44.10
2019-03-17T09:18:50.666Z,44.20
2019-03-17T09:21:21.421Z,43.40
2019-03-17T09:23:52.342Z,43.90
2019-03-17T09:26:23.004Z,44.10
2019-03-17T09:28:53.498Z,43.60
2019-03-17T09:31:24.128Z,44.10
2019-03-17T09:33:54.733Z,44.40
2019-03-17T09:36:25.484Z,44.40
2019-03-17T09:38:56.061Z,44.40
2019-03-17T09:41:26.794Z,44.70
2019-03-17T09:43:57.428Z,44.10
2019-03-17T09:46:28.499Z,44.10
2019-03-17T09:48:59.119Z,44.10
2019-03-17T09:51:30.011Z,44.30
2019-03-17T09:54:00.659Z,44.40
2019-03-17T09:56:36.708Z,44.50
2019-03-17T09:59:07.894Z,43.70
2019-03-17T10:01:38.496Z,44.20
2019-03-17T10:04:09.094Z,44.30
2019-03-17T10:06:39.876Z,44.10
2019-03-17T10:09:10.526Z,44.60
2019-03-17T10:11:40.938Z,44.50
2019-03-17T10:14:11.607Z,44.50
2019-03-17T10:16:42.391Z,44.40
2019-03-17T10:19:13.128Z,44.50
2019-03-17T10:21:44.006Z,44.60
2019-03-17T10:24:14.868Z,44.70
2019-03-17T10:26:45.625Z,44.80
2019-03-17T10:29:16.205Z,44.90
2019-03-17T10:31:47.006Z,45.00
2019-03-17T10:34:17.623Z,44.80
2019-03-17T10:36:48.068Z,44.90
2019-03-17T10:39:18.755Z,44.90
2019-03-17T10:41:49.422Z,44.80
2019-03-17T10:44:20.074Z,44.80
2019-03-17T10:46:50.879Z,44.90
2019-03-17T10:49:21.438Z,45.00
2019-03-17T10:51:52.240Z,45.10
2019-03-17T10:54:22.956Z,45.10
2019-03-17T10:56:53.419Z,45.20
2019-03-17T10:59:24.060Z,45.30
2019-03-17T11:01:54.694Z,45.40
2019-03-17T11:04:25.348Z,45.40
2019-03-17T11:06:56.219Z,45.50
2019-03-17T11:09:26.953Z,45.50
2019-03-17T11:11:57.435Z,45.60
2019-03-17T11:14:28.064Z,45.70
2019-03-17T11:16:59.139Z,45.80
2019-03-17T11:19:29.859Z,46.10
2019-03-17T11:22:00.507Z,46.20
2019-03-17T11:24:31.360Z,46.30
2019-03-17T11:27:01.899Z,46.50
2019-03-17T11:29:32.582Z,46.70
2019-03-17T11:32:03.248Z,46.20
2019-03-17T11:34:33.891Z,46.90
2019-03-17T11:37:04.562Z,47.00
2019-03-17T11:39:38.064Z,47.20
2019-03-17T11:42:07.463Z,47.40
2019-03-17T11:44:38.367Z,47.60
2019-03-17T11:47:09.043Z,47.70
2019-03-17T11:49:39.847Z,47.80
2019-03-17T11:52:10.353Z,47.90
2019-03-17T11:54:41.264Z,47.90
2019-03-17T11:57:12.114Z,48.10
2019-03-17T11:59:42.501Z,48.20
2019-03-17T12:02:25.753Z,48.30
2019-03-17T12:04:45.543Z,48.40
2019-03-17T12:07:16.122Z,48.50
2019-03-17T12:09:50.345Z,48.60
2019-03-17T12:12:19.062Z,48.70
2019-03-17T12:14:49.570Z,48.90
2019-03-17T12:17:20.175Z,49.20
2019-03-17T12:19:50.714Z,49.30
2019-03-17T12:22:21.452Z,49.60
2019-03-17T12:24:52.361Z,49.80
2019-03-17T12:27:23.322Z,49.90
2019-03-17T12:29:54.090Z,50.00
2019-03-17T12:32:24.667Z,50.30
2019-03-17T12:34:55.419Z,50.20
2019-03-17T12:37:26.101Z,50.30
2019-03-17T12:40:02.418Z,50.80
2019-03-17T12:42:29.092Z,50.70
2019-03-17T12:44:59.582Z,50.70
2019-03-17T12:47:30.311Z,50.80
2019-03-17T12:50:00.805Z,50.90
2019-03-17T12:52:31.696Z,51.20
2019-03-17T12:55:02.421Z,51.50
2019-03-17T12:57:33.227Z,51.60
2019-03-17T13:00:04.114Z,51.80
2019-03-17T13:02:34.707Z,51.80
2019-03-17T13:05:05.859Z,51.90
2019-03-17T13:07:36.944Z,52.10
2019-03-17T13:10:15.677Z,51.90
2019-03-17T13:12:41.899Z,51.90
2019-03-17T13:15:13.637Z,51.80
2019-03-17T13:17:44.403Z,52.00
2019-03-17T13:20:16.783Z,52.00
2019-03-17T13:22:47.425Z,52.40
2019-03-17T13:25:18.199Z,52.70
2019-03-17T13:27:49.050Z,52.60
2019-03-17T13:30:20.428Z,52.50
2019-03-17T13:32:51.101Z,53.00
2019-03-17T13:35:22.038Z,53.20
2019-03-17T13:37:52.639Z,53.40
2019-03-17T13:40:29.268Z,53.60
2019-03-17T13:42:55.607Z,53.50
2019-03-17T13:45:26.276Z,53.50
2019-03-17T13:47:56.995Z,53.60
2019-03-17T13:50:27.692Z,53.60
2019-03-17T13:52:58.337Z,53.90
2019-03-17T13:55:30.187Z,54.40
2019-03-17T13:58:03.168Z,54.60
2019-03-17T14:00:33.942Z,54.50
2019-03-17T14:03:04.752Z,54.30
2019-03-17T14:05:35.385Z,54.10
2019-03-17T14:08:06.406Z,54.40
2019-03-17T14:10:41.443Z,54.90
2019-03-17T14:13:09.013Z,55.10
2019-03-17T14:15:39.627Z,55.10
2019-03-17T14:18:10.187Z,54.90
2019-03-17T14:20:40.931Z,54.50
2019-03-17T14:23:11.447Z,54.20
2019-03-17T14:25:42.047Z,54.00
2019-03-17T14:28:12.636Z,54.30
2019-03-17T14:30:43.217Z,54.30
2019-03-17T14:33:13.941Z,54.40
2019-03-17T14:35:45.631Z,54.40
2019-03-17T14:38:16.389Z,54.50
2019-03-17T14:40:53.261Z,54.70
2019-03-17T14:43:19.388Z,54.70
2019-03-17T14:45:50.498Z,54.50
2019-03-17T14:48:21.096Z,55.60
2019-03-17T14:50:51.835Z,55.30
2019-03-17T14:53:22.539Z,56.10
2019-03-17T14:55:53.265Z,56.60
2019-03-17T14:58:24.145Z,56.70
2019-03-17T15:00:54.641Z,57.20
2019-03-17T15:03:25.318Z,56.90
2019-03-17T15:05:55.885Z,57.40
2019-03-17T15:08:26.533Z,57.10
2019-03-17T15:11:05.880Z,56.80
2019-03-17T15:13:29.592Z,56.60
2019-03-17T15:16:03.003Z,56.80
2019-03-17T15:18:32.398Z,57.20
2019-03-17T15:21:03.041Z,57.40
2019-03-17T15:23:33.800Z,57.30
2019-03-17T15:26:04.329Z,57.10
2019-03-17T15:28:35.031Z,57.10
2019-03-17T15:31:11.731Z,56.80
2019-03-17T15:33:37.737Z,56.90
2019-03-17T15:36:08.392Z,56.80
2019-03-17T15:38:39.001Z,56.90
2019-03-17T15:41:18.452Z,56.80
2019-03-17T15:43:41.706Z,56.70
2019-03-17T15:46:12.389Z,56.70
2019-03-17T15:48:43.064Z,56.80
2019-03-17T15:51:20.359Z,56.70
2019-03-17T15:53:45.488Z,57.40
2019-03-17T15:56:16.258Z,57.30
2019-03-17T15:58:47.124Z,57.00
2019-03-17T16:01:17.913Z,56.90
2019-03-17T16:03:48.708Z,57.20
2019-03-17T16:06:19.501Z,57.30
2019-03-17T16:08:50.286Z,58.00
2019-03-17T16:11:30.306Z,58.00
2019-03-17T16:13:53.028Z,58.00
2019-03-17T16:16:23.859Z,58.10
2019-03-17T16:18:55.295Z,57.70
2019-03-17T16:21:25.904Z,57.60
2019-03-17T16:23:56.593Z,57.80
2019-03-17T16:26:27.469Z,58.60
2019-03-17T16:28:58.188Z,58.70
2019-03-17T16:31:28.820Z,60.60
2019-03-17T16:33:59.526Z,60.40
2019-03-17T16:36:30.930Z,60.00
2019-03-17T16:39:01.735Z,59.60
2019-03-17T16:41:42.900Z,59.50
2019-03-17T16:44:04.487Z,59.50
2019-03-17T16:46:35.297Z,59.70
2019-03-17T16:49:06.055Z,59.70
2019-03-17T16:51:37.084Z,59.80
2019-03-17T16:54:07.769Z,60.00
2019-03-17T16:56:38.419Z,60.20
2019-03-17T16:59:09.959Z,60.10
2019-03-17T17:01:40.699Z,60.10
2019-03-17T17:04:11.469Z,60.60
2019-03-17T17:06:42.097Z,60.40
2019-03-17T17:09:12.678Z,60.40
2019-03-17T17:11:55.279Z,60.30
2019-03-17T17:14:15.151Z,60.60
2019-03-17T17:16:45.997Z,60.40
2019-03-17T17:19:16.566Z,60.30
2019-03-17T17:21:47.063Z,60.40
2019-03-17T17:24:17.617Z,60.70
2019-03-17T17:26:48.223Z,59.90
2019-03-17T17:29:18.783Z,60.30
2019-03-17T17:31:49.308Z,59.80
2019-03-17T17:34:20.089Z,60.30
2019-03-17T17:36:50.623Z,60.70
2019-03-17T17:39:21.438Z,61.10
2019-03-17T17:41:52.398Z,61.10
2019-03-17T17:44:23.249Z,61.10
2019-03-17T17:46:53.807Z,61.40
2019-03-17T17:49:24.423Z,61.50
2019-03-17T17:51:55.099Z,61.70
2019-03-17T17:54:25.709Z,61.30
2019-03-17T17:56:56.460Z,61.30
2019-03-17T17:59:27.297Z,60.60
2019-03-17T18:01:57.986Z,60.90
2019-03-17T18:04:28.658Z,62.10
2019-03-17T18:06:59.364Z,62.00
2019-03-17T18:09:30.133Z,62.70
2019-03-17T18:12:00.759Z,63.10
2019-03-17T18:14:31.317Z,63.50
2019-03-17T18:17:01.897Z,62.70
2019-03-17T18:19:32.649Z,62.70
2019-03-17T18:22:03.397Z,62.20
2019-03-17T18:24:34.143Z,62.00
2019-03-17T18:27:04.800Z,62.50
2019-03-17T18:29:35.770Z,62.70
2019-03-17T18:32:06.456Z,63.00
2019-03-17T18:34:37.222Z,63.20
2019-03-17T18:37:08.188Z,62.60
2019-03-17T18:39:39.697Z,63.10
2019-03-17T18:42:12.791Z,63.70
2019-03-17T18:44:43.877Z,64.40
2019-03-17T18:47:14.929Z,64.00
2019-03-17T18:49:45.485Z,64.10
2019-03-17T18:52:16.272Z,64.20
2019-03-17T18:54:47.032Z,64.10
2019-03-17T18:57:17.709Z,63.80
2019-03-17T18:59:48.351Z,63.70
2019-03-17T19:02:18.974Z,64.00
2019-03-17T19:04:50.437Z,63.80
2019-03-17T19:07:21.033Z,63.60
2019-03-17T19:09:51.539Z,64.10
2019-03-17T19:12:22.363Z,64.10
2019-03-17T19:14:53.099Z,64.20
2019-03-17T19:17:23.939Z,64.20
2019-03-17T19:19:54.629Z,64.40
2019-03-17T19:22:25.262Z,63.60
2019-03-17T19:24:55.997Z,63.20
2019-03-17T19:27:26.650Z,63.50
2019-03-17T19:29:57.430Z,64.00
2019-03-17T19:32:28.042Z,63.60
2019-03-17T19:34:59.032Z,63.50
2019-03-17T19:37:29.660Z,64.20
2019-03-17T19:40:01.424Z,65.20
2019-03-17T19:42:32.368Z,66.00
2019-03-17T19:45:03.142Z,65.50
2019-03-17T19:47:33.720Z,66.60
2019-03-17T19:50:04.515Z,66.20
2019-03-17T19:52:35.620Z,66.10
2019-03-17T19:55:07.486Z,65.80
2019-03-17T19:57:37.988Z,65.70
2019-03-17T20:00:10.971Z,65.50
2019-03-17T20:02:41.627Z,64.80
2019-03-17T20:05:12.451Z,64.90
2019-03-17T20:07:43.073Z,65.10
2019-03-17T20:10:16.112Z,65.60
2019-03-17T20:12:46.826Z,65.60
2019-03-17T20:15:17.498Z,65.80
2019-03-17T20:17:48.656Z,65.90
2019-03-17T20:20:19.404Z,65.70
2019-03-17T20:22:49.924Z,65.50
2019-03-17T20:25:20.973Z,65.60
2019-03-17T20:27:51.809Z,65.50
2019-03-17T20:30:22.566Z,65.70
2019-03-17T20:32:53.219Z,66.20
2019-03-17T20:35:23.751Z,66.20
2019-03-17T20:37:54.411Z,67.20
2019-03-17T20:40:25.344Z,67.10
2019-03-17T20:42:56.105Z,66.80
2019-03-17T20:45:26.772Z,67.00
2019-03-17T20:47:57.400Z,67.00
2019-03-17T20:50:28.367Z,66.70
2019-03-17T20:52:58.973Z,66.20
2019-03-17T20:55:29.633Z,66.10
2019-03-17T20:58:01.379Z,65.60
2019-03-17T21:00:32.057Z,66.20
2019-03-17T21:03:02.791Z,65.90
2019-03-17T21:05:33.474Z,65.80
2019-03-17T21:08:05.162Z,66.20
2019-03-17T21:10:36.040Z,66.40
2019-03-17T21:13:06.717Z,67.20
2019-03-17T21:15:37.926Z,67.40
2019-03-17T21:18:08.698Z,67.60
2019-03-17T21:20:39.282Z,67.50
2019-03-17T21:23:10.033Z,67.80
2019-03-17T21:25:40.700Z,67.80
2019-03-17T21:28:11.480Z,68.20
2019-03-17T23:04:34.835Z,68.10
2019-03-17T23:07:05.949Z,68.70
2019-03-17T23:09:36.378Z,68.70
2019-03-17T23:12:07.126Z,68.80
2019-03-17T23:14:37.738Z,69.30
2019-03-17T23:17:08.406Z,68.20
2019-03-17T23:19:38.987Z,67.80
2019-03-17T23:22:09.521Z,67.80
2019-03-17T23:24:40.244Z,68.00
2019-03-17T23:27:10.817Z,68.60
2019-03-17T23:29:41.537Z,68.00
2019-03-17T23:32:12.217Z,67.50
2019-03-17T23:34:42.921Z,67.50
2019-03-17T23:37:13.794Z,67.50
2019-03-17T23:39:44.319Z,68.10
2019-03-17T23:42:14.953Z,67.10
2019-03-17T23:44:49.232Z,66.90
2019-03-17T23:47:17.601Z,66.90
2019-03-17T23:49:48.227Z,66.70
2019-03-17T23:52:19.023Z,66.60
2019-03-17T23:54:49.762Z,66.40
2019-03-17T23:57:20.587Z,66.30
2019-03-17T23:59:51.387Z,66.20
